EZS38RU LSGG-LDDU
Flight info
| Callsign | EZS38RU |
|---|---|
| Flight time | 1h 29m |
| Altitude | 37000 |
| Route | MEDAM DCT NITAM DCT MOGBO DCT KODOK DCT TOP DCT LURUT DCT IBENI DCT SPL DCT SIPAL |
| Aircraft | A320/M-SDE3FGHIRWY/LB1 |
Departure
| Time | 2026-05-04 07:33 |
|---|---|
| Airport | Geneva International Airport (LSGG) |
Arrival
| Time | 2026-05-04 09:03 |
|---|---|
| Airport | Dubrovnik Ruđer Bošković Airport (LDDU) |
| Time | Latitude | Longitude | Altitude | Speed | Heading |
|---|---|---|---|---|---|
| 2026-05-04 07:20 | 46.22946 | 6.10452 | 1404 ft | 0 kts | 134° |
| 2026-05-04 07:26 | 46.22964 | 6.10428 | 1393 ft | 3 kts | 135° |
| 2026-05-04 07:27 | 46.22976 | 6.10399 | 1402 ft | 4 kts | 84° |
| 2026-05-04 07:27 | 46.22966 | 6.10367 | 1403 ft | 4 kts | 47° |
| 2026-05-04 07:27 | 46.22962 | 6.10360 | 1393 ft | 0 kts | 46° |
| 2026-05-04 07:29 | 46.22965 | 6.10365 | 1393 ft | 4 kts | 46° |
| 2026-05-04 07:29 | 46.23009 | 6.10429 | 1401 ft | 11 kts | 45° |
| 2026-05-04 07:30 | 46.23066 | 6.10479 | 1393 ft | 9 kts | 338° |
| 2026-05-04 07:30 | 46.23127 | 6.10405 | 1400 ft | 15 kts | 315° |
| 2026-05-04 07:30 | 46.23197 | 6.10350 | 1393 ft | 10 kts | 26° |
| 2026-05-04 07:30 | 46.23263 | 6.10442 | 1393 ft | 17 kts | 45° |
| 2026-05-04 07:31 | 46.23358 | 6.10582 | 1392 ft | 22 kts | 45° |
| 2026-05-04 07:31 | 46.23472 | 6.10738 | 1391 ft | 24 kts | 45° |
| 2026-05-04 07:33 | 46.23003 | 6.09716 | 1420 ft | 156 kts | 225° |
| 2026-05-04 07:33 | 46.22198 | 6.08543 | 2006 ft | 169 kts | 226° |
| 2026-05-04 07:33 | 46.21365 | 6.07319 | 2859 ft | 172 kts | 226° |
| 2026-05-04 07:33 | 46.20539 | 6.06100 | 3659 ft | 168 kts | 226° |
| 2026-05-04 07:34 | 46.19727 | 6.04902 | 4324 ft | 168 kts | 225° |
| 2026-05-04 07:34 | 46.18903 | 6.03692 | 4878 ft | 174 kts | 224° |
| 2026-05-04 07:34 | 46.18007 | 6.02389 | 5187 ft | 193 kts | 224° |
| 2026-05-04 07:34 | 46.17006 | 6.00951 | 5444 ft | 213 kts | 224° |
| 2026-05-04 07:35 | 46.15891 | 5.99328 | 5714 ft | 242 kts | 224° |
| 2026-05-04 07:35 | 46.14661 | 5.97492 | 6155 ft | 265 kts | 225° |
| 2026-05-04 07:35 | 46.13370 | 5.95539 | 6925 ft | 273 kts | 225° |
| 2026-05-04 07:35 | 46.11872 | 5.93833 | 7760 ft | 278 kts | 204° |
| 2026-05-04 07:36 | 46.09991 | 5.93215 | 8603 ft | 281 kts | 178° |
| 2026-05-04 07:36 | 46.08086 | 5.93821 | 9434 ft | 284 kts | 154° |
| 2026-05-04 07:38 | 46.02868 | 6.13749 | 14066 ft | 340 kts | 129° |
| 2026-05-04 07:38 | 46.01189 | 6.16152 | 14739 ft | 343 kts | 144° |
| 2026-05-04 07:38 | 45.99268 | 6.18194 | 15417 ft | 346 kts | 142° |
| 2026-05-04 07:38 | 45.97659 | 6.20790 | 16043 ft | 354 kts | 123° |
| 2026-05-04 07:39 | 45.96627 | 6.24031 | 16654 ft | 360 kts | 114° |
| 2026-05-04 07:39 | 45.95693 | 6.27394 | 17264 ft | 364 kts | 114° |
| 2026-05-04 07:39 | 45.94755 | 6.30795 | 17803 ft | 368 kts | 115° |
| 2026-05-04 07:39 | 45.93807 | 6.34234 | 18375 ft | 372 kts | 115° |
| 2026-05-04 07:40 | 45.92848 | 6.37707 | 18966 ft | 376 kts | 115° |
| 2026-05-04 07:40 | 45.91880 | 6.41216 | 19567 ft | 380 kts | 115° |
| 2026-05-04 07:40 | 45.90902 | 6.44754 | 20152 ft | 383 kts | 115° |
| 2026-05-04 07:40 | 45.89915 | 6.48317 | 20710 ft | 386 kts | 115° |
| 2026-05-04 07:41 | 45.88917 | 6.51906 | 21237 ft | 389 kts | 115° |
| 2026-05-04 07:41 | 45.87905 | 6.55514 | 21769 ft | 391 kts | 115° |
| 2026-05-04 07:41 | 45.86885 | 6.59155 | 22265 ft | 395 kts | 115° |
| 2026-05-04 07:41 | 45.85856 | 6.62822 | 22751 ft | 398 kts | 115° |
| 2026-05-04 07:42 | 45.84815 | 6.66518 | 23230 ft | 401 kts | 115° |
| 2026-05-04 07:42 | 45.83768 | 6.70232 | 23694 ft | 404 kts | 115° |
| 2026-05-04 07:42 | 45.82718 | 6.73980 | 24117 ft | 406 kts | 115° |
| 2026-05-04 07:42 | 45.81673 | 6.77696 | 24538 ft | 409 kts | 115° |
| 2026-05-04 07:43 | 45.80601 | 6.81480 | 24943 ft | 411 kts | 116° |
| 2026-05-04 07:43 | 45.79520 | 6.85293 | 25344 ft | 414 kts | 116° |
| 2026-05-04 07:43 | 45.78432 | 6.89122 | 25770 ft | 416 kts | 116° |
| 2026-05-04 07:43 | 45.77338 | 6.92973 | 26186 ft | 418 kts | 116° |
| 2026-05-04 07:44 | 45.76241 | 6.96831 | 26550 ft | 419 kts | 116° |
| 2026-05-04 07:44 | 45.75139 | 7.00701 | 26876 ft | 421 kts | 116° |
| 2026-05-04 07:44 | 45.74030 | 7.04590 | 27192 ft | 423 kts | 116° |
| 2026-05-04 07:44 | 45.72912 | 7.08498 | 27534 ft | 426 kts | 116° |
| 2026-05-04 07:45 | 45.71783 | 7.12431 | 27938 ft | 428 kts | 116° |
| 2026-05-04 07:45 | 45.70650 | 7.16381 | 28316 ft | 430 kts | 116° |
| 2026-05-04 07:45 | 45.69510 | 7.20354 | 28681 ft | 433 kts | 116° |
| 2026-05-04 07:45 | 45.68365 | 7.24340 | 29031 ft | 434 kts | 116° |
| 2026-05-04 07:46 | 45.67212 | 7.28340 | 29351 ft | 436 kts | 116° |
| 2026-05-04 07:46 | 45.66054 | 7.32358 | 29660 ft | 438 kts | 116° |
| 2026-05-04 07:46 | 45.64889 | 7.36391 | 29996 ft | 440 kts | 116° |
| 2026-05-04 07:46 | 45.63715 | 7.40436 | 30314 ft | 443 kts | 116° |
| 2026-05-04 07:47 | 45.62533 | 7.44515 | 30633 ft | 444 kts | 116° |
| 2026-05-04 07:47 | 45.61347 | 7.48598 | 30927 ft | 447 kts | 116° |
| 2026-05-04 07:47 | 45.60153 | 7.52705 | 31205 ft | 449 kts | 115° |
| 2026-05-04 07:49 | 45.51745 | 7.81431 | 33597 ft | 446 kts | 116° |
| 2026-05-04 07:49 | 45.50547 | 7.85504 | 33931 ft | 445 kts | 116° |
| 2026-05-04 07:49 | 45.49349 | 7.89571 | 34270 ft | 445 kts | 116° |
| 2026-05-04 07:50 | 45.48151 | 7.93630 | 34601 ft | 444 kts | 116° |
| 2026-05-04 07:50 | 45.46951 | 7.97690 | 34915 ft | 445 kts | 116° |
| 2026-05-04 07:50 | 45.45746 | 8.01744 | 35230 ft | 444 kts | 116° |
| 2026-05-04 07:50 | 45.44539 | 8.05794 | 35496 ft | 444 kts | 116° |
| 2026-05-04 07:51 | 45.43329 | 8.09840 | 35756 ft | 445 kts | 116° |
| 2026-05-04 07:51 | 45.42119 | 8.13896 | 36038 ft | 445 kts | 116° |
| 2026-05-04 07:51 | 45.40912 | 8.17947 | 36304 ft | 444 kts | 116° |
| 2026-05-04 07:51 | 45.39702 | 8.21997 | 36531 ft | 445 kts | 116° |
| 2026-05-04 07:52 | 45.38490 | 8.26040 | 36745 ft | 444 kts | 116° |
| 2026-05-04 07:52 | 45.37276 | 8.30079 | 36951 ft | 444 kts | 116° |
| 2026-05-04 07:52 | 45.36062 | 8.34118 | 37110 ft | 444 kts | 116° |
| 2026-05-04 07:52 | 45.34854 | 8.38135 | 37139 ft | 440 kts | 116° |
| 2026-05-04 07:54 | 45.25277 | 8.69730 | 37136 ft | 433 kts | 116° |
| 2026-05-04 07:55 | 45.22885 | 8.77573 | 37138 ft | 433 kts | 116° |
| 2026-05-04 07:55 | 45.20481 | 8.85407 | 37139 ft | 433 kts | 116° |
| 2026-05-04 07:56 | 45.18072 | 8.93230 | 37135 ft | 433 kts | 116° |
| 2026-05-04 07:56 | 45.15662 | 9.01050 | 37136 ft | 433 kts | 116° |
| 2026-05-04 07:57 | 45.13239 | 9.08875 | 37133 ft | 434 kts | 116° |
| 2026-05-04 07:57 | 45.10817 | 9.16692 | 37133 ft | 433 kts | 116° |
| 2026-05-04 07:58 | 45.08392 | 9.24500 | 37128 ft | 433 kts | 116° |
| 2026-05-04 07:58 | 45.05950 | 9.32304 | 37134 ft | 434 kts | 116° |
| 2026-05-04 07:59 | 45.03495 | 9.40124 | 37137 ft | 435 kts | 116° |
| 2026-05-04 07:59 | 45.01038 | 9.47971 | 37121 ft | 439 kts | 116° |
| 2026-05-04 08:00 | 44.98521 | 9.55968 | 37122 ft | 451 kts | 116° |
| 2026-05-04 08:02 | 44.88100 | 9.88774 | 37110 ft | 459 kts | 116° |
| 2026-05-04 08:02 | 44.85470 | 9.96977 | 37112 ft | 460 kts | 116° |
| 2026-05-04 08:03 | 44.82840 | 10.05191 | 37111 ft | 460 kts | 116° |
| 2026-05-04 08:03 | 44.80207 | 10.13402 | 37105 ft | 460 kts | 116° |
| 2026-05-04 08:04 | 44.77559 | 10.21591 | 37114 ft | 460 kts | 116° |
| 2026-05-04 08:04 | 44.74921 | 10.29720 | 37115 ft | 460 kts | 116° |
| 2026-05-04 08:05 | 44.72242 | 10.37971 | 37118 ft | 462 kts | 116° |
| 2026-05-04 08:05 | 44.69573 | 10.46169 | 37124 ft | 461 kts | 116° |
| 2026-05-04 08:06 | 44.66910 | 10.54296 | 37137 ft | 461 kts | 117° |
| 2026-05-04 08:06 | 44.64214 | 10.62481 | 37140 ft | 462 kts | 116° |
| 2026-05-04 08:08 | 44.53424 | 10.95135 | 37182 ft | 461 kts | 116° |
| 2026-05-04 08:10 | 44.47503 | 11.28583 | 37144 ft | 463 kts | 104° |
| 2026-05-04 08:11 | 44.46787 | 11.32978 | 37141 ft | 463 kts | 104° |
| 2026-05-04 08:11 | 44.44638 | 11.46138 | 37136 ft | 463 kts | 104° |
| 2026-05-04 08:12 | 44.43202 | 11.54908 | 37134 ft | 463 kts | 104° |
| 2026-05-04 08:12 | 44.41751 | 11.63688 | 37128 ft | 464 kts | 104° |
| 2026-05-04 08:13 | 44.40293 | 11.72482 | 37130 ft | 464 kts | 104° |
| 2026-05-04 08:13 | 44.38835 | 11.81279 | 37130 ft | 464 kts | 104° |
| 2026-05-04 08:14 | 44.37369 | 11.90047 | 37122 ft | 463 kts | 104° |
| 2026-05-04 08:16 | 44.31412 | 12.25144 | 37108 ft | 465 kts | 104° |
| 2026-05-04 08:16 | 44.29895 | 12.33934 | 37117 ft | 466 kts | 104° |
| 2026-05-04 08:17 | 44.28377 | 12.42731 | 37118 ft | 466 kts | 104° |
| 2026-05-04 08:17 | 44.26849 | 12.51527 | 37130 ft | 466 kts | 104° |
| 2026-05-04 08:19 | 44.20673 | 12.86675 | 37130 ft | 468 kts | 104° |
| 2026-05-04 08:20 | 44.19105 | 12.95472 | 37139 ft | 468 kts | 104° |
| 2026-05-04 08:20 | 44.17539 | 13.04268 | 37127 ft | 468 kts | 104° |
| 2026-05-04 08:21 | 44.15953 | 13.13054 | 37132 ft | 468 kts | 104° |
| 2026-05-04 08:21 | 44.14371 | 13.21839 | 37122 ft | 468 kts | 104° |
| 2026-05-04 08:22 | 44.12786 | 13.30626 | 37118 ft | 469 kts | 104° |
| 2026-05-04 08:24 | 44.06335 | 13.65810 | 37094 ft | 468 kts | 103° |
| 2026-05-04 08:24 | 44.04698 | 13.74628 | 37115 ft | 472 kts | 104° |
| 2026-05-04 08:25 | 44.03046 | 13.83467 | 37122 ft | 467 kts | 103° |
| 2026-05-04 08:25 | 44.01415 | 13.92232 | 37105 ft | 470 kts | 104° |
| 2026-05-04 08:27 | 43.94140 | 14.27292 | 37115 ft | 474 kts | 105° |
| 2026-05-04 08:28 | 43.92311 | 14.36088 | 37120 ft | 475 kts | 105° |
| 2026-05-04 08:28 | 43.90473 | 14.44886 | 37127 ft | 475 kts | 105° |
| 2026-05-04 08:29 | 43.88622 | 14.53666 | 37123 ft | 475 kts | 105° |
| 2026-05-04 08:31 | 43.81136 | 14.88798 | 37147 ft | 476 kts | 105° |
| 2026-05-04 08:33 | 43.73529 | 15.23861 | 37162 ft | 476 kts | 105° |
| 2026-05-04 08:35 | 43.65842 | 15.58769 | 37171 ft | 476 kts | 105° |
| 2026-05-04 08:35 | 43.63900 | 15.67507 | 37174 ft | 476 kts | 105° |
| 2026-05-04 08:37 | 43.57063 | 15.97945 | 37184 ft | 463 kts | 105° |
| 2026-05-04 08:37 | 43.56102 | 16.02169 | 36963 ft | 461 kts | 105° |
| 2026-05-04 08:38 | 43.55147 | 16.06363 | 36714 ft | 457 kts | 105° |
| 2026-05-04 08:38 | 43.54201 | 16.10534 | 36464 ft | 455 kts | 105° |
| 2026-05-04 08:38 | 43.53259 | 16.14689 | 36214 ft | 453 kts | 105° |
| 2026-05-04 08:40 | 43.44246 | 16.42145 | 34454 ft | 454 kts | 120° |
| 2026-05-04 08:40 | 43.42546 | 16.45800 | 34203 ft | 452 kts | 120° |
| 2026-05-04 08:40 | 43.40856 | 16.49441 | 33957 ft | 451 kts | 120° |
| 2026-05-04 08:41 | 43.39179 | 16.53056 | 33485 ft | 448 kts | 120° |
| 2026-05-04 08:41 | 43.37499 | 16.56663 | 32970 ft | 447 kts | 120° |
| 2026-05-04 08:41 | 43.35824 | 16.60247 | 32465 ft | 444 kts | 120° |
| 2026-05-04 08:41 | 43.34162 | 16.63803 | 31959 ft | 441 kts | 120° |
| 2026-05-04 08:42 | 43.32511 | 16.67340 | 31469 ft | 438 kts | 120° |
| 2026-05-04 08:42 | 43.30867 | 16.70851 | 30973 ft | 436 kts | 120° |
| 2026-05-04 08:42 | 43.29230 | 16.74340 | 30493 ft | 433 kts | 120° |
| 2026-05-04 08:42 | 43.27600 | 16.77805 | 30029 ft | 430 kts | 120° |
| 2026-05-04 08:43 | 43.25986 | 16.81237 | 29560 ft | 426 kts | 119° |
| 2026-05-04 08:43 | 43.24388 | 16.84640 | 29102 ft | 423 kts | 119° |
| 2026-05-04 08:43 | 43.22808 | 16.88009 | 28661 ft | 417 kts | 119° |
| 2026-05-04 08:43 | 43.21248 | 16.91326 | 28224 ft | 412 kts | 119° |
| 2026-05-04 08:44 | 43.19698 | 16.94614 | 27775 ft | 409 kts | 119° |
| 2026-05-04 08:44 | 43.18160 | 16.97866 | 27330 ft | 405 kts | 120° |
| 2026-05-04 08:46 | 43.04485 | 17.16178 | 24004 ft | 393 kts | 142° |
| 2026-05-04 08:46 | 43.02259 | 17.18316 | 23505 ft | 390 kts | 142° |
| 2026-05-04 08:46 | 43.00043 | 17.20446 | 23014 ft | 389 kts | 142° |
| 2026-05-04 08:46 | 42.97839 | 17.22566 | 22530 ft | 387 kts | 142° |
| 2026-05-04 08:47 | 42.95639 | 17.24678 | 22057 ft | 385 kts | 142° |
| 2026-05-04 08:47 | 42.93454 | 17.26768 | 21588 ft | 382 kts | 142° |
| 2026-05-04 08:47 | 42.91287 | 17.28836 | 21124 ft | 379 kts | 142° |
| 2026-05-04 08:47 | 42.89132 | 17.30884 | 20670 ft | 376 kts | 142° |
| 2026-05-04 08:48 | 42.86991 | 17.32919 | 20215 ft | 374 kts | 142° |
| 2026-05-04 08:48 | 42.84866 | 17.34949 | 19773 ft | 372 kts | 142° |
| 2026-05-04 08:48 | 42.82758 | 17.36967 | 19321 ft | 370 kts | 142° |
| 2026-05-04 08:48 | 42.80660 | 17.38968 | 18884 ft | 367 kts | 142° |
| 2026-05-04 08:49 | 42.78569 | 17.40955 | 18443 ft | 365 kts | 142° |
| 2026-05-04 08:50 | 42.70430 | 17.57205 | 15955 ft | 343 kts | 114° |
| 2026-05-04 08:50 | 42.69335 | 17.60018 | 15569 ft | 339 kts | 114° |
| 2026-05-04 08:51 | 42.68230 | 17.62841 | 15176 ft | 337 kts | 114° |
| 2026-05-04 08:51 | 42.67134 | 17.65650 | 14790 ft | 335 kts | 114° |
| 2026-05-04 08:51 | 42.66054 | 17.68437 | 14397 ft | 334 kts | 113° |
| 2026-05-04 08:51 | 42.64976 | 17.71221 | 14007 ft | 332 kts | 114° |
| 2026-05-04 08:52 | 42.63904 | 17.73980 | 13619 ft | 330 kts | 114° |
| 2026-05-04 08:52 | 42.62834 | 17.76724 | 13231 ft | 328 kts | 114° |
| 2026-05-04 08:52 | 42.61765 | 17.79448 | 12831 ft | 327 kts | 114° |
| 2026-05-04 08:52 | 42.60700 | 17.82161 | 12425 ft | 325 kts | 114° |
| 2026-05-04 08:53 | 42.59998 | 17.83950 | 12175 ft | 324 kts | 114° |
| 2026-05-04 08:54 | 42.52736 | 18.02408 | 9694 ft | 302 kts | 116° |
| 2026-05-04 08:55 | 42.51757 | 18.04892 | 9381 ft | 296 kts | 116° |
| 2026-05-04 08:55 | 42.50788 | 18.07353 | 8991 ft | 296 kts | 116° |
| 2026-05-04 08:55 | 42.49821 | 18.09805 | 8607 ft | 294 kts | 116° |
| 2026-05-04 08:55 | 42.48860 | 18.12240 | 8216 ft | 292 kts | 116° |
| 2026-05-04 08:57 | 42.42265 | 18.28941 | 5533 ft | 257 kts | 117° |
| 2026-05-04 09:01 | 42.53156 | 18.34326 | 1569 ft | 152 kts | 297° |
| 2026-05-04 09:01 | 42.53645 | 18.33113 | 1342 ft | 142 kts | 297° |
| 2026-05-04 09:01 | 42.54102 | 18.31960 | 1161 ft | 136 kts | 298° |
| 2026-05-04 09:01 | 42.54555 | 18.30830 | 1030 ft | 137 kts | 300° |
| 2026-05-04 09:02 | 42.54994 | 18.29691 | 810 ft | 136 kts | 298° |
| 2026-05-04 09:02 | 42.55452 | 18.28558 | 625 ft | 137 kts | 297° |
| 2026-05-04 09:02 | 42.55889 | 18.27452 | 533 ft | 122 kts | 297° |
| 2026-05-04 09:02 | 42.56208 | 18.26649 | 534 ft | 63 kts | 298° |
| 2026-05-04 09:03 | 42.56328 | 18.26337 | 533 ft | 20 kts | 299° |
| 2026-05-04 09:03 | 42.56345 | 18.26233 | 534 ft | 10 kts | 244° |
| 2026-05-04 09:03 | 42.56290 | 18.26214 | 534 ft | 8 kts | 165° |
| 2026-05-04 09:03 | 42.56241 | 18.26236 | 534 ft | 7 kts | 181° |
| 2026-05-04 09:04 | 42.56211 | 18.26201 | 534 ft | 5 kts | 245° |
| 2026-05-04 09:04 | 42.56215 | 18.26162 | 534 ft | 4 kts | 291° |
| 2026-05-04 09:04 | 42.56210 | 18.26140 | 534 ft | 2 kts | 235° |
| 2026-05-04 09:04 | 42.56202 | 18.26131 | 534 ft | 1 kts | 220° |
| 2026-05-04 09:05 | 42.56186 | 18.26119 | 534 ft | 3 kts | 208° |
| 2026-05-04 09:05 | 42.56172 | 18.26108 | 534 ft | 2 kts | 208° |
| 2026-05-04 09:05 | 42.56167 | 18.26105 | 534 ft | 0 kts | 208° |